Time;durP1;ratioP1;P1;durP2;ratioP2;P2;SDS_P1;SDS_P2;PMS_P1;PMS_P2;Temp;Humidity;BMP_temperature;BMP_pressure;BME280_temperature;BME280_humidity;BME280_pressure;Samples;Min_cycle;Max_cycle;Signal;HPM_P1;HPM_P2
2023/05/03 05:55:35;;;;;;;8.20;5.78;;;14.80;81.10;;;;;;5092716;28;20863;-69
2023/05/03 05:58:01;;;;;;;9.43;6.18;;;14.90;80.20;;;;;;5092788;28;20028;-68
2023/05/03 06:00:26;;;;;;;7.80;5.18;;;14.90;80.00;;;;;;5091928;28;20081;-67
2023/05/03 06:02:52;;;;;;;5.75;4.25;;;15.00;80.00;;;;;;5072508;28;20435;-69
2023/05/03 06:05:18;;;;;;;7.63;5.30;;;15.10;80.00;;;;;;5072224;28;20124;-69
2023/05/03 06:07:45;;;;;;;8.80;5.05;;;15.30;80.10;;;;;;5071917;28;20056;-68
2023/05/03 06:10:11;;;;;;;7.00;4.50;;;15.40;80.10;;;;;;5071152;28;20108;-68
2023/05/03 06:12:37;;;;;;;6.93;3.88;;;15.50;79.90;;;;;;5072048;28;20136;-67
2023/05/03 06:15:03;;;;;;;5.78;3.90;;;15.70;79.70;;;;;;5072201;28;20035;-68
2023/05/03 06:17:29;;;;;;;4.22;3.20;;;15.90;79.50;;;;;;5071942;28;20029;-69
2023/05/03 06:19:56;;;;;;;3.53;3.08;;;16.10;79.30;;;;;;5071938;28;20046;-69
2023/05/03 06:22:22;;;;;;;6.10;2.70;;;16.30;79.10;;;;;;5072328;28;20029;-69
2023/05/03 06:24:48;;;;;;;3.47;2.50;;;16.50;78.90;;;;;;5072028;28;20059;-66
2023/05/03 06:27:14;;;;;;;2.42;2.10;;;16.70;78.60;;;;;;5071805;28;20041;-67
2023/05/03 06:29:40;;;;;;;2.35;2.10;;;16.90;78.00;;;;;;5071752;28;20020;-65
2023/05/03 06:32:06;;;;;;;2.63;1.90;;;17.20;77.60;;;;;;5071819;28;20500;-66
2023/05/03 06:34:32;;;;;;;3.72;2.60;;;17.40;77.20;;;;;;5071516;28;20326;-65
2023/05/03 06:36:58;;;;;;;3.67;2.40;;;17.50;76.90;;;;;;5071602;28;20024;-64
2023/05/03 06:39:24;;;;;;;2.42;1.88;;;17.80;76.50;;;;;;5072674;28;20317;-65
2023/05/03 06:41:50;;;;;;;2.55;2.00;;;17.90;76.20;;;;;;5071471;28;20450;-66
2023/05/03 06:44:16;;;;;;;2.33;2.13;;;18.20;75.80;;;;;;5071377;28;20040;-65
2023/05/03 06:46:42;;;;;;;2.90;2.25;;;18.50;75.50;;;;;;5071348;28;20068;-65
2023/05/03 06:49:08;;;;;;;4.55;2.20;;;19.50;75.00;;;;;;5071390;28;20045;-65
2023/05/03 06:51:34;;;;;;;3.25;2.30;;;20.90;73.30;;;;;;5071475;28;20071;-66
2023/05/03 06:54:05;;;;;;;3.08;2.10;;;21.90;70.50;;;;;;5071016;28;20449;-65
2023/05/03 06:56:32;;;;;;;3.42;2.08;;;22.40;68.50;;;;;;5071293;28;20040;-65
2023/05/03 06:58:59;;;;;;;2.55;2.10;;;22.40;67.50;;;;;;5071277;28;20020;-64
2023/05/03 07:01:25;;;;;;;2.67;2.10;;;22.10;67.30;;;;;;5058974;28;20037;-65
2023/05/03 07:03:51;;;;;;;2.20;2.00;;;21.80;67.60;;;;;;5051257;28;20021;-64
2023/05/03 07:06:17;;;;;;;2.80;2.00;;;21.40;67.90;;;;;;5041552;28;20033;-64
2023/05/03 07:08:43;;;;;;;2.97;2.20;;;21.10;68.20;;;;;;5036746;28;20022;-66
2023/05/03 07:11:09;;;;;;;2.33;2.00;;;20.90;68.60;;;;;;5047942;28;20032;-68
2023/05/03 07:13:35;;;;;;;3.30;2.05;;;20.60;69.00;;;;;;5044799;28;20037;-64
2023/05/03 07:16:01;;;;;;;1.98;1.85;;;20.50;69.30;;;;;;5048562;28;20036;-66
2023/05/03 07:18:27;;;;;;;2.60;2.00;;;20.40;69.60;;;;;;5057590;28;20450;-65
2023/05/03 07:20:53;;;;;;;4.43;2.20;;;20.30;69.60;;;;;;5057877;28;20106;-66
2023/05/03 07:23:19;;;;;;;5.97;2.30;;;20.20;69.60;;;;;;5057988;28;20421;-64
2023/05/03 07:25:45;;;;;;;2.13;1.67;;;20.20;69.80;;;;;;5057431;28;20040;-65
2023/05/03 07:28:11;;;;;;;1.75;1.65;;;20.20;69.70;;;;;;5057434;28;20024;-64
2023/05/03 07:30:37;;;;;;;2.60;1.63;;;20.30;69.80;;;;;;5057319;28;20028;-65
2023/05/03 07:33:03;;;;;;;1.73;1.63;;;20.40;69.70;;;;;;5045921;28;20063;-65
2023/05/03 07:35:30;;;;;;;2.53;1.80;;;20.60;69.70;;;;;;5042452;28;20049;-64
2023/05/03 07:37:56;;;;;;;1.60;1.50;;;20.80;69.40;;;;;;5037585;28;20415;-64
2023/05/03 07:40:22;;;;;;;1.75;1.55;;;20.90;68.80;;;;;;5037088;28;20088;-64
2023/05/03 07:42:47;;;;;;;2.28;1.95;;;21.10;68.40;;;;;;5037049;28;20029;-65
2023/05/03 07:45:14;;;;;;;2.28;1.77;;;21.30;67.80;;;;;;5046616;28;20446;-64
2023/05/03 07:47:39;;;;;;;3.17;1.70;;;21.40;67.20;;;;;;5047554;28;20040;-63
2023/05/03 07:50:06;;;;;;;2.10;1.63;;;21.50;67.30;;;;;;5056073;28;20029;-63
2023/05/03 07:52:36;;;;;;;3.72;1.85;;;21.70;66.90;;;;;;5049632;28;20052;-62
2023/05/03 07:55:02;;;;;;;1.92;1.77;;;21.90;66.20;;;;;;5056575;28;20060;-65
2023/05/03 07:57:28;;;;;;;1.20;1.20;;;22.10;65.90;;;;;;5056882;28;20021;-64
2023/05/03 07:59:54;;;;;;;1.67;1.58;;;22.30;65.60;;;;;;5056768;28;20062;-63
2023/05/03 08:02:21;;;;;;;1.48;1.25;;;22.40;65.20;;;;;;5056463;28;20025;-65
2023/05/03 08:04:47;;;;;;;1.95;1.40;;;22.60;64.80;;;;;;5056941;28;20099;-65
2023/05/03 08:07:13;;;;;;;2.15;1.38;;;22.70;64.40;;;;;;5056685;28;20170;-65
2023/05/03 08:09:40;;;;;;;1.45;1.25;;;22.80;64.30;;;;;;5056246;28;20070;-65
2023/05/03 08:12:06;;;;;;;2.85;1.40;;;22.90;63.80;;;;;;5056597;28;20029;-65
2023/05/03 08:14:32;;;;;;;3.45;1.60;;;22.90;63.60;;;;;;5055425;28;20365;-65
2023/05/03 08:16:59;;;;;;;3.47;1.50;;;23.00;63.60;;;;;;5055802;28;20087;-63
2023/05/03 08:19:25;;;;;;;2.80;1.40;;;23.20;63.00;;;;;;5047501;28;20140;-65
2023/05/03 08:21:53;;;;;;;1.45;1.33;;;23.30;62.90;;;;;;5034681;28;20033;-65
2023/05/03 08:24:19;;;;;;;2.35;1.23;;;23.40;62.70;;;;;;5034401;28;20025;-64
2023/05/03 08:26:47;;;;;;;1.33;1.23;;;23.60;62.40;;;;;;5034322;28;20451;-65
2023/05/03 08:29:15;;;;;;;1.05;0.90;;;23.70;62.30;;;;;;5034367;28;20101;-64
2023/05/03 08:31:42;;;;;;;1.42;1.13;;;23.90;62.00;;;;;;5034247;28;20321;-64
2023/05/03 08:34:09;;;;;;;1.25;1.05;;;23.90;61.60;;;;;;5034422;28;20040;-65
2023/05/03 08:36:37;;;;;;;1.83;1.10;;;24.10;61.50;;;;;;5035290;28;20033;-64
2023/05/03 08:39:06;;;;;;;1.38;1.00;;;24.10;60.70;;;;;;5035940;28;20370;-64
2023/05/03 08:41:32;;;;;;;2.75;1.25;;;24.30;60.70;;;;;;5036344;28;20030;-64
2023/05/03 08:44:00;;;;;;;1.00;1.00;;;24.40;60.30;;;;;;5036073;28;20049;-64
2023/05/03 08:46:27;;;;;;;1.08;0.98;;;24.40;59.90;;;;;;5035422;28;20139;-64
2023/05/03 08:48:54;;;;;;;1.10;1.02;;;24.40;59.70;;;;;;5036232;28;20052;-64
2023/05/03 08:51:21;;;;;;;1.15;1.05;;;24.30;59.50;;;;;;5035815;28;20033;-64
2023/05/03 08:53:47;;;;;;;1.00;0.90;;;24.20;59.70;;;;;;5035825;28;20375;-64
2023/05/03 08:56:23;;;;;;;1.08;0.75;;;24.10;59.40;;;;;;5035850;28;20021;-64
2023/05/03 08:58:49;;;;;;;1.15;0.80;;;24.00;59.00;;;;;;5036116;28;20030;-64
2023/05/03 09:01:15;;;;;;;1.20;1.10;;;23.90;59.00;;;;;;5035656;28;20033;-63
2023/05/03 09:03:48;;;;;;;1.20;1.10;;;23.90;59.30;;;;;;5035969;28;20120;-64
2023/05/03 09:06:24;;;;;;;1.17;1.00;;;23.80;59.20;;;;;;5035967;28;20030;-64
2023/05/03 09:08:51;;;;;;;0.75;0.75;;;23.70;59.50;;;;;;5035093;28;20068;-64
2023/05/03 09:11:22;;;;;;;0.73;0.70;;;23.80;58.80;;;;;;5035781;28;20132;-64
2023/05/03 09:13:48;;;;;;;0.60;0.60;;;23.80;57.50;;;;;;5035710;28;20453;-64
2023/05/03 09:16:29;;;;;;;0.60;0.60;;;23.80;56.60;;;;;;5035560;28;20502;-64
2023/05/03 09:18:59;;;;;;;1.50;0.50;;;23.80;55.10;;;;;;5035789;28;20040;-64
2023/05/03 09:21:25;;;;;;;0.40;0.40;;;23.80;54.90;;;;;;5035636;28;20025;-64
2023/05/03 09:23:51;;;;;;;0.65;0.60;;;23.70;53.20;;;;;;5035693;28;20095;-64
2023/05/03 09:26:32;;;;;;;0.77;0.75;;;23.70;52.90;;;;;;5035413;28;20033;-63
2023/05/03 09:29:00;;;;;;;1.08;0.60;;;23.70;50.00;;;;;;5035085;28;20030;-64
2023/05/03 09:31:30;;;;;;;0.85;0.52;;;23.70;52.40;;;;;;5035239;28;20084;-64
2023/05/03 09:33:57;;;;;;;0.60;0.60;;;23.90;52.60;;;;;;5035490;28;20117;-64
2023/05/03 09:36:24;;;;;;;0.73;0.65;;;23.90;49.30;;;;;;5035227;28;20190;-64
2023/05/03 09:38:51;;;;;;;0.70;0.70;;;23.90;50.40;;;;;;5035185;28;20030;-64
2023/05/03 09:41:27;;;;;;;0.80;0.70;;;23.80;50.40;;;;;;5034153;28;20147;-64
2023/05/03 09:43:55;;;;;;;1.60;0.50;;;23.70;45.10;;;;;;5035426;28;20442;-64
2023/05/03 09:46:26;;;;;;;0.70;0.70;;;23.70;49.90;;;;;;5035047;28;20035;-64
2023/05/03 09:48:54;;;;;;;0.93;0.65;;;23.70;50.70;;;;;;5034536;28;20033;-64
2023/05/03 09:51:22;;;;;;;0.90;0.75;;;23.80;49.80;;;;;;5035038;28;20024;-64
2023/05/03 09:53:49;;;;;;;0.68;0.68;;;23.70;49.30;;;;;;5034964;28;20049;-63
2023/05/03 09:56:16;;;;;;;0.60;0.60;;;23.70;49.70;;;;;;5034989;28;20443;-64
2023/05/03 09:58:42;;;;;;;0.85;0.68;;;23.70;49.60;;;;;;5035021;28;20092;-64
2023/05/03 10:01:09;;;;;;;0.70;0.70;;;23.80;50.10;;;;;;5034900;28;20018;-64
2023/05/03 10:03:40;;;;;;;0.63;0.63;;;24.00;49.60;;;;;;5035179;28;20041;-64
2023/05/03 10:06:44;;;;;;;1.25;0.73;;;24.00;49.00;;;;;;5035435;28;20033;-64
2023/05/03 10:09:43;;;;;;;0.55;0.52;;;24.00;46.90;;;;;;5013680;28;20117;-64
2023/05/03 10:12:11;;;;;;;0.60;0.57;;;23.80;43.70;;;;;;4974395;28;20166;-64
2023/05/03 10:14:41;;;;;;;0.40;0.40;;;23.40;44.70;;;;;;4974261;28;20057;-64
2023/05/03 10:17:29;;;;;;;0.60;0.60;;;23.10;43.90;;;;;;4974673;28;20098;-64
2023/05/03 10:20:19;;;;;;;0.70;0.70;;;22.70;45.00;;;;;;4974804;28;20035;-64
2023/05/03 10:23:03;;;;;;;0.63;0.60;;;22.60;46.40;;;;;;4974245;28;20035;-64
2023/05/03 10:25:34;;;;;;;1.27;0.70;;;22.50;46.90;;;;;;4974914;28;20361;-64
2023/05/03 10:28:03;;;;;;;1.70;0.63;;;22.40;46.60;;;;;;4974369;28;20097;-64
2023/05/03 10:30:37;;;;;;;0.50;0.50;;;22.30;46.40;;;;;;4974496;28;20451;-63
2023/05/03 10:33:08;;;;;;;0.90;0.65;;;22.20;46.80;;;;;;4974205;28;20045;-64
2023/05/03 10:35:39;;;;;;;1.05;0.65;;;22.20;46.20;;;;;;4974554;28;20039;-64
2023/05/03 10:38:35;;;;;;;0.70;0.60;;;22.10;45.40;;;;;;4975518;28;20063;-64
2023/05/03 10:41:02;;;;;;;0.90;0.80;;;22.00;45.60;;;;;;4957249;28;20496;-64
2023/05/03 10:43:28;;;;;;;0.70;0.70;;;22.00;47.20;;;;;;4943489;29;20094;-64
2023/05/03 10:46:00;;;;;;;1.35;0.95;;;22.00;46.60;;;;;;4940268;29;20119;-64
2023/05/03 10:48:27;;;;;;;1.55;0.90;;;22.10;47.20;;;;;;4986227;28;20042;-63
2023/05/03 10:50:54;;;;;;;0.65;0.65;;;22.20;48.30;;;;;;4997009;28;20388;-63
2023/05/03 10:53:41;;;;;;;4.13;0.90;;;22.40;48.70;;;;;;4996768;28;20534;-64
2023/05/03 10:56:12;;;;;;;1.92;0.82;;;22.50;46.20;;;;;;4997018;28;20098;-64
2023/05/03 10:58:43;;;;;;;2.10;1.00;;;22.50;47.10;;;;;;4997006;28;20110;-64
2023/05/03 11:01:10;;;;;;;0.80;0.80;;;22.50;47.60;;;;;;4997295;28;20044;-64
2023/05/03 11:03:47;;;;;;;1.15;1.05;;;22.50;47.90;;;;;;4997450;28;20532;-64
2023/05/03 11:06:33;;;;;;;1.33;0.88;;;22.60;48.20;;;;;;4980631;28;20134;-63
2023/05/03 11:08:59;;;;;;;0.98;0.98;;;22.70;46.50;;;;;;4996884;28;20106;-64
2023/05/03 11:11:25;;;;;;;1.10;1.00;;;22.80;48.00;;;;;;4996704;28;20173;-64
2023/05/03 11:13:52;;;;;;;1.65;0.80;;;22.70;47.60;;;;;;4996733;28;20117;-64
2023/05/03 11:16:19;;;;;;;1.55;1.30;;;22.70;46.90;;;;;;5000020;28;20032;-64
2023/05/03 11:18:47;;;;;;;1.10;1.00;;;22.70;47.10;;;;;;5037743;28;20021;-64
2023/05/03 11:21:14;;;;;;;1.52;1.02;;;22.70;47.60;;;;;;5037589;28;20155;-64
2023/05/03 11:23:41;;;;;;;1.25;1.15;;;22.70;47.80;;;;;;5037644;28;20044;-64
2023/05/03 11:26:08;;;;;;;1.60;1.13;;;22.80;48.10;;;;;;5038105;28;20041;-64
2023/05/03 11:28:37;;;;;;;1.48;1.38;;;22.90;48.10;;;;;;5037513;28;20443;-64
2023/05/03 11:31:05;;;;;;;2.28;1.23;;;22.90;48.30;;;;;;5037397;28;20458;-64
2023/05/03 11:33:34;;;;;;;2.08;1.30;;;22.90;47.90;;;;;;5037838;28;20072;-64
2023/05/03 11:36:05;;;;;;;1.30;1.20;;;22.80;48.00;;;;;;5037367;28;20021;-64
2023/05/03 11:38:32;;;;;;;1.42;1.20;;;22.70;47.90;;;;;;5037327;28;20335;-64
2023/05/03 11:40:59;;;;;;;1.90;1.65;;;22.60;48.90;;;;;;5037231;28;20021;-64
2023/05/03 11:43:26;;;;;;;1.67;1.58;;;22.50;50.40;;;;;;5037518;28;20036;-64
2023/05/03 11:45:56;;;;;;;1.17;1.00;;;22.60;50.20;;;;;;5037234;28;20024;-64
2023/05/03 11:48:22;;;;;;;2.03;1.80;;;22.70;50.30;;;;;;5037694;28;20075;-64
2023/05/03 11:50:55;;;;;;;1.52;1.42;;;22.80;49.60;;;;;;5037289;28;20088;-64
2023/05/03 11:53:24;;;;;;;3.97;1.23;;;22.80;49.20;;;;;;5036949;28;20075;-64
2023/05/03 11:55:53;;;;;;;4.03;1.60;;;22.80;49.60;;;;;;5037329;28;20032;-64
2023/05/03 11:58:26;;;;;;;2.28;1.65;;;22.90;49.60;;;;;;5036941;28;20026;-64
2023/05/03 12:00:54;;;;;;;2.42;1.50;;;22.90;49.30;;;;;;5037178;28;20021;-64
2023/05/03 12:03:22;;;;;;;2.60;1.98;;;22.80;49.70;;;;;;5036813;28;20104;-64
2023/05/03 12:05:50;;;;;;;2.67;2.15;;;22.70;49.00;;;;;;5037364;28;20025;-64
2023/05/03 12:08:18;;;;;;;3.28;1.92;;;22.60;49.40;;;;;;5036721;28;20034;-64
2023/05/03 12:10:44;;;;;;;1.50;1.40;;;22.60;49.20;;;;;;5037206;28;20111;-64
2023/05/03 12:13:11;;;;;;;3.42;2.15;;;22.70;49.50;;;;;;5036726;28;20037;-64
2023/05/03 12:15:38;;;;;;;3.78;1.95;;;22.80;49.70;;;;;;5037061;28;20026;-64
2023/05/03 12:18:09;;;;;;;3.22;1.90;;;22.80;49.50;;;;;;5036851;28;20032;-64
2023/05/03 12:20:36;;;;;;;2.28;1.60;;;22.60;50.00;;;;;;5036754;28;20088;-64
2023/05/03 12:23:06;;;;;;;3.65;1.63;;;22.50;50.50;;;;;;5036497;28;20073;-64
2023/05/03 12:25:33;;;;;;;1.30;1.20;;;22.50;50.60;;;;;;5036435;28;20030;-64
2023/05/03 12:28:04;;;;;;;1.30;1.20;;;22.50;50.80;;;;;;5036652;28;20028;-64
2023/05/03 12:30:31;;;;;;;1.48;1.38;;;22.60;51.00;;;;;;5036397;28;20455;-64
2023/05/03 12:32:57;;;;;;;1.08;0.80;;;22.80;51.10;;;;;;5036264;28;20078;-64
2023/05/03 12:35:24;;;;;;;1.30;1.20;;;22.90;51.10;;;;;;5036795;28;20033;-64
2023/05/03 12:37:50;;;;;;;1.17;0.98;;;23.10;51.30;;;;;;5036233;28;20372;-64
2023/05/03 12:40:18;;;;;;;1.30;0.88;;;23.30;51.10;;;;;;5036671;28;20064;-64
2023/05/03 12:42:45;;;;;;;0.70;0.70;;;23.40;50.30;;;;;;5036294;28;20021;-64
2023/05/03 12:45:14;;;;;;;0.85;0.85;;;23.50;50.00;;;;;;5036034;28;20104;-64
2023/05/03 12:47:40;;;;;;;0.55;0.55;;;23.50;49.40;;;;;;5035228;28;20013;-64
2023/05/03 12:50:08;;;;;;;0.60;0.60;;;23.50;49.50;;;;;;5034956;28;20025;-64
2023/05/03 12:52:35;;;;;;;0.60;0.60;;;23.60;49.60;;;;;;5035928;28;20017;-64
2023/05/03 12:55:05;;;;;;;0.70;0.70;;;23.70;49.40;;;;;;5035704;28;20124;-64
2023/05/03 12:57:32;;;;;;;1.40;0.60;;;23.70;49.20;;;;;;5035921;28;20032;-64
2023/05/03 12:59:58;;;;;;;2.30;0.70;;;23.70;49.00;;;;;;5036437;28;20026;-64
2023/05/03 13:02:24;;;;;;;1.90;0.70;;;23.50;48.70;;;;;;5036035;28;20051;-64
2023/05/03 13:04:54;;;;;;;0.70;0.70;;;23.40;47.40;;;;;;5035759;28;20033;-64
2023/05/03 13:07:26;;;;;;;1.40;0.70;;;23.10;47.00;;;;;;5036523;28;20025;-64
2023/05/03 13:09:54;;;;;;;0.70;0.70;;;22.80;47.90;;;;;;5036025;28;20370;-64
2023/05/03 13:12:21;;;;;;;1.13;0.88;;;22.50;47.90;;;;;;5035580;28;20108;-64
2023/05/03 13:14:52;;;;;;;0.63;0.63;;;22.20;48.80;;;;;;5035914;28;20096;-64
2023/05/03 13:17:19;;;;;;;1.30;0.60;;;22.00;49.30;;;;;;5035647;28;20079;-64
2023/05/03 13:19:49;;;;;;;0.60;0.52;;;21.80;49.80;;;;;;5035583;28;20439;-64
2023/05/03 13:22:16;;;;;;;3.90;1.17;;;21.70;49.60;;;;;;5035656;28;20044;-64
2023/05/03 13:24:44;;;;;;;0.85;0.70;;;21.70;49.60;;;;;;5035716;28;20034;-64
2023/05/03 13:27:10;;;;;;;0.85;0.85;;;21.70;49.30;;;;;;5035283;28;20458;-64
2023/05/03 13:29:37;;;;;;;0.90;0.60;;;21.80;49.40;;;;;;5035466;28;20029;-64
2023/05/03 13:32:03;;;;;;;0.60;0.50;;;21.80;49.40;;;;;;5034318;28;20083;-64
2023/05/03 13:34:29;;;;;;;0.50;0.50;;;21.90;48.90;;;;;;5035236;28;20033;-64
2023/05/03 13:36:55;;;;;;;0.63;0.63;;;21.90;49.00;;;;;;5035195;28;20438;-64
2023/05/03 13:39:22;;;;;;;1.23;0.65;;;21.90;48.70;;;;;;5035210;28;20033;-63
2023/05/03 13:41:48;;;;;;;0.40;0.40;;;22.00;47.90;;;;;;5035382;28;20415;-64
2023/05/03 13:44:14;;;;;;;0.30;0.30;;;22.00;47.40;;;;;;5035316;28;20033;-64
2023/05/03 13:46:42;;;;;;;0.40;0.40;;;22.00;47.60;;;;;;5035410;28;20017;-64
2023/05/03 13:49:08;;;;;;;0.47;0.47;;;21.90;46.80;;;;;;5035068;28;20093;-64
2023/05/03 13:51:34;;;;;;;0.50;0.50;;;21.90;46.60;;;;;;5035005;28;20354;-64
2023/05/03 13:54:04;;;;;;;0.35;0.35;;;21.90;46.10;;;;;;5035034;28;20084;-64
2023/05/03 13:56:30;;;;;;;1.17;0.47;;;21.90;45.50;;;;;;5034813;28;20064;-64
2023/05/03 13:58:56;;;;;;;1.00;0.57;;;21.80;45.60;;;;;;5035143;28;20029;-64
2023/05/03 14:01:26;;;;;;;0.40;0.40;;;21.90;45.00;;;;;;5035249;28;20355;-64
2023/05/03 14:03:53;;;;;;;0.43;0.43;;;21.80;44.90;;;;;;5034867;28;20037;-64
2023/05/03 14:06:20;;;;;;;0.40;0.40;;;21.70;44.70;;;;;;5034920;28;20022;-64
2023/05/03 14:08:47;;;;;;;0.50;0.30;;;21.60;45.60;;;;;;5034875;28;20038;-64
2023/05/03 14:11:17;;;;;;;0.40;0.40;;;21.40;44.10;;;;;;5034883;28;20092;-63
2023/05/03 14:13:43;;;;;;;2.40;0.40;;;21.30;44.80;;;;;;5035099;28;20044;-64
2023/05/03 14:16:16;;;;;;;1.27;0.50;;;21.10;45.50;;;;;;5036989;28;20128;-64
2023/05/03 14:18:42;;;;;;;0.82;0.50;;;21.00;46.20;;;;;;5033541;28;20034;-64
2023/05/03 14:21:09;;;;;;;0.52;0.52;;;20.90;46.20;;;;;;5039136;28;20029;-64
2023/05/03 14:23:34;;;;;;;0.40;0.40;;;20.90;46.40;;;;;;5038640;28;20029;-64
2023/05/03 14:26:01;;;;;;;1.65;0.50;;;20.80;47.20;;;;;;5038729;28;20063;-64
2023/05/03 14:28:27;;;;;;;0.50;0.50;;;20.90;47.80;;;;;;5038821;28;20025;-63
2023/05/03 14:30:53;;;;;;;0.57;0.57;;;21.00;47.70;;;;;;5038423;28;20455;-63
2023/05/03 14:33:20;;;;;;;0.98;0.65;;;21.00;47.90;;;;;;5038835;28;20049;-63
2023/05/03 14:35:45;;;;;;;0.30;0.30;;;21.10;48.00;;;;;;5038478;28;20483;-63
2023/05/03 14:38:13;;;;;;;0.40;0.40;;;21.10;47.90;;;;;;5038497;28;20025;-63
2023/05/03 14:40:40;;;;;;;0.75;0.55;;;21.10;47.80;;;;;;5038845;28;20036;-63
2023/05/03 14:43:07;;;;;;;0.63;0.60;;;21.00;48.00;;;;;;5038313;28;20032;-63
2023/05/03 14:45:34;;;;;;;0.52;0.52;;;21.00;48.00;;;;;;5038544;28;20044;-63
2023/05/03 14:48:00;;;;;;;0.50;0.43;;;20.90;48.20;;;;;;5038582;28;20088;-63
2023/05/03 14:50:26;;;;;;;0.35;0.35;;;21.00;48.50;;;;;;5038521;28;20030;-63
2023/05/03 14:52:52;;;;;;;1.05;0.45;;;21.20;47.70;;;;;;5038202;28;20018;-63
2023/05/03 14:55:18;;;;;;;2.40;0.60;;;21.20;47.40;;;;;;5038052;28;20103;-63
2023/05/03 14:57:44;;;;;;;0.57;0.55;;;21.40;47.60;;;;;;5038898;28;20030;-63
2023/05/03 15:00:13;;;;;;;0.40;0.40;;;21.40;47.10;;;;;;5037079;28;20039;-63
2023/05/03 15:02:40;;;;;;;0.40;0.40;;;21.50;47.60;;;;;;5037134;28;20447;-63
2023/05/03 15:05:07;;;;;;;1.85;0.68;;;21.50;47.30;;;;;;5038204;28;20025;-63
2023/05/03 15:07:33;;;;;;;0.50;0.50;;;21.60;46.90;;;;;;5057162;28;20453;-63
2023/05/03 15:10:03;;;;;;;0.57;0.57;;;21.50;47.20;;;;;;5057842;28;20025;-63
2023/05/03 15:12:30;;;;;;;0.60;0.50;;;21.50;47.20;;;;;;5057619;28;20025;-72
2023/05/03 15:14:56;;;;;;;0.57;0.57;;;21.50;47.70;;;;;;5057689;28;20044;-59
2023/05/03 15:17:23;;;;;;;0.50;0.50;;;21.50;47.80;;;;;;5057518;28;20396;-59
2023/05/03 15:19:49;;;;;;;1.38;0.70;;;21.60;48.00;;;;;;5052240;28;20434;-60
2023/05/03 15:22:15;;;;;;;0.50;0.50;;;21.60;47.80;;;;;;5057558;28;20453;-59
2023/05/03 15:24:41;;;;;;;0.60;0.60;;;21.70;47.60;;;;;;5057483;28;20025;-60
2023/05/03 15:27:07;;;;;;;1.67;0.40;;;21.70;47.20;;;;;;5056775;28;20043;-59
2023/05/03 15:29:36;;;;;;;2.10;0.60;;;21.80;47.50;;;;;;5057357;28;20393;-59
2023/05/03 15:32:02;;;;;;;0.57;0.57;;;21.90;47.20;;;;;;5057252;28;20442;-62
2023/05/03 15:34:28;;;;;;;0.60;0.60;;;21.90;47.10;;;;;;5057320;28;20033;-62
2023/05/03 15:36:54;;;;;;;0.68;0.55;;;22.00;46.90;;;;;;5057265;28;20481;-62
2023/05/03 15:39:21;;;;;;;2.92;0.60;;;22.10;46.30;;;;;;5057518;28;20037;-62
2023/05/03 15:41:47;;;;;;;0.50;0.50;;;22.00;46.50;;;;;;5057081;28;20029;-59
2023/05/03 15:44:14;;;;;;;0.75;0.57;;;22.00;46.40;;;;;;5057083;28;20047;-59
2023/05/03 15:46:40;;;;;;;1.55;0.70;;;21.90;46.10;;;;;;5057068;28;20482;-60
2023/05/03 15:49:06;;;;;;;0.50;0.50;;;21.90;46.40;;;;;;5057311;28;20024;-63
2023/05/03 15:51:32;;;;;;;0.70;0.70;;;21.80;46.70;;;;;;5057031;28;20029;-63
2023/05/03 15:53:58;;;;;;;0.90;0.50;;;21.80;46.90;;;;;;5055689;28;20186;-60
2023/05/03 15:56:24;;;;;;;2.03;0.70;;;21.90;47.10;;;;;;5057154;28;20044;-63
2023/05/03 15:58:51;;;;;;;0.50;0.50;;;22.00;46.90;;;;;;5056846;28;20046;-60
2023/05/03 16:01:17;;;;;;;0.57;0.57;;;22.00;47.00;;;;;;5056693;28;20036;-62
2023/05/03 16:03:43;;;;;;;0.60;0.60;;;21.90;47.20;;;;;;5056892;28;20029;-59
2023/05/03 16:06:09;;;;;;;0.60;0.60;;;21.90;47.30;;;;;;5055687;28;20358;-62
2023/05/03 16:08:35;;;;;;;0.60;0.60;;;21.80;47.30;;;;;;5056672;28;20021;-62
2023/05/03 16:11:01;;;;;;;0.80;0.80;;;21.70;47.70;;;;;;5056532;28;20086;-62
2023/05/03 16:13:28;;;;;;;0.98;0.80;;;21.70;47.90;;;;;;5057000;28;20072;-62
2023/05/03 16:15:55;;;;;;;0.60;0.60;;;21.60;47.90;;;;;;5056302;28;20453;-62
2023/05/03 16:18:23;;;;;;;1.35;0.60;;;21.60;47.80;;;;;;5056370;28;20446;-61
2023/05/03 16:20:50;;;;;;;0.60;0.60;;;21.50;47.90;;;;;;5052804;28;20021;-59
2023/05/03 16:23:16;;;;;;;1.60;0.68;;;21.50;48.10;;;;;;5054694;28;20464;-61
2023/05/03 16:25:41;;;;;;;0.65;0.65;;;21.50;48.10;;;;;;5056427;28;20025;-60
2023/05/03 16:28:08;;;;;;;0.60;0.60;;;21.50;47.90;;;;;;5056102;28;20108;-60
2023/05/03 16:30:34;;;;;;;2.10;0.88;;;21.40;48.00;;;;;;5056354;28;20039;-58
2023/05/03 16:33:03;;;;;;;0.75;0.60;;;21.30;48.10;;;;;;5055898;28;20037;-60
2023/05/03 16:35:29;;;;;;;1.30;0.88;;;21.30;48.30;;;;;;5055945;28;20017;-62
2023/05/03 16:37:55;;;;;;;1.52;1.30;;;21.20;48.60;;;;;;5055583;28;20044;-60
2023/05/03 16:40:21;;;;;;;1.00;0.70;;;21.20;48.10;;;;;;5056339;28;20040;-62
2023/05/03 16:42:51;;;;;;;1.20;0.80;;;21.20;48.20;;;;;;5054856;28;20060;-61
2023/05/03 16:45:18;;;;;;;0.93;0.88;;;21.10;48.00;;;;;;5056332;28;20025;-61
2023/05/03 16:47:46;;;;;;;0.80;0.80;;;21.10;47.40;;;;;;5056026;28;20029;-62
2023/05/03 16:50:12;;;;;;;0.98;0.88;;;21.00;47.30;;;;;;5056045;28;20043;-62
2023/05/03 16:52:40;;;;;;;5.78;4.38;;;21.00;47.70;;;;;;5055672;28;20142;-61
2023/05/03 16:55:07;;;;;;;3.83;3.47;;;20.90;47.00;;;;;;5038105;28;20045;-59
2023/05/03 16:57:35;;;;;;;6.53;5.28;;;20.90;47.20;;;;;;5055604;28;20060;-59
2023/05/03 17:00:07;;;;;;;4.57;3.85;;;20.80;47.40;;;;;;5055888;28;20037;-59
2023/05/03 17:02:34;;;;;;;4.60;4.05;;;20.70;47.40;;;;;;5055488;28;20033;-59
2023/05/03 17:05:00;;;;;;;2.30;2.10;;;20.70;47.70;;;;;;5055366;28;20025;-62
2023/05/03 17:07:26;;;;;;;9.73;6.47;;;20.60;48.20;;;;;;5055093;28;20482;-59
2023/05/03 17:09:51;;;;;;;13.68;8.50;;;20.50;48.60;;;;;;5054191;28;20021;-59
2023/05/03 17:12:18;;;;;;;5.30;2.95;;;20.40;49.10;;;;;;5055229;28;20051;-62
2023/05/03 17:14:44;;;;;;;7.47;4.65;;;20.30;49.50;;;;;;5055289;28;20033;-62
2023/05/03 17:17:11;;;;;;;3.88;2.75;;;20.20;49.70;;;;;;5054760;28;20041;-62
2023/05/03 17:19:37;;;;;;;12.80;8.65;;;20.00;50.10;;;;;;5054778;28;20055;-61
2023/05/03 17:22:03;;;;;;;9.02;4.88;;;19.90;50.50;;;;;;5054073;28;20411;-58
2023/05/03 17:24:29;;;;;;;9.15;4.63;;;19.80;50.80;;;;;;5034666;28;20061;-61
2023/05/03 17:26:55;;;;;;;5.28;2.97;;;19.80;51.20;;;;;;5037370;28;20038;-60
2023/05/03 17:29:21;;;;;;;4.10;2.78;;;19.70;51.50;;;;;;5053323;28;20032;-61
2023/05/03 17:31:47;;;;;;;5.07;2.20;;;19.70;51.90;;;;;;5053073;28;20107;-61
2023/05/03 17:34:13;;;;;;;5.03;1.95;;;19.70;52.20;;;;;;5054274;28;20033;-60
2023/05/03 17:36:39;;;;;;;2.47;1.50;;;19.50;52.40;;;;;;5054896;28;20029;-62
2023/05/03 17:39:05;;;;;;;3.10;1.10;;;19.50;52.70;;;;;;5053310;28;20021;-60
2023/05/03 17:41:31;;;;;;;2.63;1.30;;;19.40;52.90;;;;;;5055303;28;20028;-61
2023/05/03 17:43:57;;;;;;;2.75;1.40;;;19.40;53.10;;;;;;5055487;28;20017;-59
2023/05/03 17:46:23;;;;;;;2.90;1.38;;;19.30;53.30;;;;;;5054728;28;20029;-61
2023/05/03 17:48:49;;;;;;;1.45;1.23;;;19.20;53.50;;;;;;5053882;28;20021;-62
2023/05/03 17:51:15;;;;;;;3.35;1.30;;;19.20;53.70;;;;;;5053859;28;20306;-59
2023/05/03 17:53:41;;;;;;;4.25;1.30;;;19.10;53.90;;;;;;5053705;28;20033;-60
2023/05/03 17:56:17;;;;;;;4.22;1.95;;;19.10;54.00;;;;;;5054212;28;20323;-61
2023/05/03 17:58:44;;;;;;;4.80;2.03;;;19.00;54.20;;;;;;5047122;28;20083;-60
2023/05/03 18:01:11;;;;;;;3.13;2.28;;;18.90;54.40;;;;;;5052642;28;20021;-62
2023/05/03 18:03:37;;;;;;;3.13;1.52;;;18.90;54.70;;;;;;5054512;28;20071;-62
2023/05/03 18:06:06;;;;;;;2.22;1.10;;;18.80;54.90;;;;;;5053821;28;20029;-59
2023/05/03 18:08:33;;;;;;;1.05;0.93;;;18.70;55.10;;;;;;5053707;28;20021;-59
2023/05/03 18:11:00;;;;;;;2.20;0.90;;;18.60;55.30;;;;;;5054736;28;20032;-59
2023/05/03 18:13:26;;;;;;;1.13;1.02;;;18.50;55.50;;;;;;5054684;28;20021;-62
2023/05/03 18:15:52;;;;;;;1.52;1.00;;;18.50;55.60;;;;;;5054080;28;20021;-59
2023/05/03 18:18:18;;;;;;;1.55;0.98;;;18.40;55.70;;;;;;5053527;28;20028;-59
2023/05/03 18:20:44;;;;;;;1.33;1.20;;;18.40;55.90;;;;;;5053133;28;20378;-60
2023/05/03 18:23:10;;;;;;;1.00;1.00;;;18.30;56.00;;;;;;5053092;28;20096;-61
2023/05/03 18:25:36;;;;;;;2.15;0.85;;;18.30;56.20;;;;;;5048818;28;20075;-60
2023/05/03 18:28:02;;;;;;;0.98;0.85;;;18.20;56.20;;;;;;5054264;28;20379;-60
2023/05/03 18:30:28;;;;;;;0.90;0.90;;;18.20;56.20;;;;;;5054427;28;20347;-59
2023/05/03 18:32:58;;;;;;;1.20;1.10;;;18.20;56.30;;;;;;5053493;28;20035;-58
2023/05/03 18:35:24;;;;;;;1.23;1.00;;;18.10;56.40;;;;;;5053665;28;20465;-58
2023/05/03 18:37:51;;;;;;;1.40;1.23;;;18.10;56.40;;;;;;5054004;28;20036;-61
2023/05/03 18:40:18;;;;;;;1.90;1.35;;;18.00;56.40;;;;;;5053768;28;20040;-61
2023/05/03 18:42:44;;;;;;;1.85;1.50;;;18.00;56.50;;;;;;5052648;28;20116;-59
2023/05/03 18:45:10;;;;;;;1.67;1.40;;;17.90;56.60;;;;;;5052458;28;20412;-59